Terminal Aerodrome Forecast
Issued by NWS

Home | Current Version | Previous Version | Text Only | Print | Product List | Glossary On
Versions: 1 2 3 4 5 6 7 8 9 10 11 12 13 14 15 16
946
FTUS41 KBTV 091135
TAFRUT
TAF
KRUT 091135Z 0912/1012 13007KT P6SM OVC090
      TEMPO 0912/0914 6SM -SN OVC035
     FM091400 16004KT 6SM -SN BR OVC035
     FM100000 VRB03KT 6SM -SN OVC030
      AMD LTD TO CLD VIS AND WIND=

USA.gov is the U.S. government's official web portal to all federal, state and local government web resources and services.